Time;durP1;ratioP1;P1;durP2;ratioP2;P2;SDS_P1;SDS_P2;PMS_P1;PMS_P2;Temp;Humidity;BMP_temperature;BMP_pressure;BME280_temperature;BME280_humidity;BME280_pressure;Samples;Min_cycle;Max_cycle;Signal;HPM_P1;HPM_P2
2021/04/27 00:01:25;;;;;;;3.55;2.45;;;;;;;7.04;30.50;100859.06;8006248;28;20049;-63
2021/04/27 00:05:18;;;;;;;3.45;2.50;;;;;;;6.95;30.25;100859.53;8006370;28;20038;-63
2021/04/27 00:09:08;;;;;;;2.95;2.35;;;;;;;6.90;30.47;100857.16;8004997;28;20112;-63
2021/04/27 00:13:01;;;;;;;4.30;2.38;;;;;;;6.85;30.48;100859.16;8011736;28;20029;-63
2021/04/27 00:16:51;;;;;;;3.85;2.47;;;;;;;6.77;30.51;100850.84;8005253;28;20040;-63
2021/04/27 00:20:42;;;;;;;5.85;3.05;;;;;;;6.71;30.62;100850.31;8013974;28;20033;-63
2021/04/27 00:24:32;;;;;;;3.65;2.42;;;;;;;6.65;30.85;100846.22;8005514;28;20044;-63
2021/04/27 00:28:23;;;;;;;5.57;2.40;;;;;;;6.58;30.54;100837.00;8006014;28;20033;-63
2021/04/27 00:32:14;;;;;;;4.00;2.47;;;;;;;6.51;31.26;100840.88;8004359;28;20052;-63
2021/04/27 00:36:05;;;;;;;3.63;2.47;;;;;;;6.42;30.83;100834.34;8001056;28;20131;-63
2021/04/27 00:39:56;;;;;;;3.08;2.20;;;;;;;6.38;30.77;100839.78;8012202;28;20048;-63
2021/04/27 00:43:46;;;;;;;4.50;2.53;;;;;;;6.30;30.97;100842.75;8013253;28;20120;-63
2021/04/27 00:47:37;;;;;;;4.22;2.58;;;;;;;6.27;31.16;100842.88;8011246;28;20029;-63
2021/04/27 00:51:28;;;;;;;5.78;2.67;;;;;;;6.22;31.14;100841.44;8016172;28;20374;-63
2021/04/27 00:55:19;;;;;;;4.63;2.33;;;;;;;6.15;31.14;100830.44;8013554;28;20124;-63
2021/04/27 00:59:10;;;;;;;4.03;2.70;;;;;;;6.11;31.39;100834.13;8007730;28;20051;-63
2021/04/27 01:03:02;;;;;;;4.65;2.25;;;;;;;6.05;31.53;100830.06;8009545;28;20032;-64
2021/04/27 01:06:53;;;;;;;5.68;3.17;;;;;;;5.98;31.42;100828.63;8010955;28;20107;-63
2021/04/27 01:11:20;;;;;;;4.55;2.35;;;;;;;5.92;31.57;100831.56;8009914;28;20447;-63
2021/04/27 01:15:16;;;;;;;4.22;2.63;;;;;;;5.88;31.81;100824.78;7976866;28;20052;-63
2021/04/27 01:19:09;;;;;;;4.43;2.63;;;;;;;5.81;31.76;100825.97;8010999;28;20025;-63
2021/04/27 01:23:11;;;;;;;8.20;2.65;;;;;;;5.77;31.67;100818.38;8013865;28;20413;-63
2021/04/27 01:27:03;;;;;;;4.07;2.20;;;;;;;5.72;31.74;100817.75;8010692;28;20166;-63
2021/04/27 01:30:54;;;;;;;4.03;2.50;;;;;;;5.65;31.98;100802.41;8010096;28;20072;-63
2021/04/27 01:34:46;;;;;;;5.30;2.67;;;;;;;5.59;31.82;100801.84;7993329;28;20814;-63
2021/04/27 01:38:59;;;;;;;5.05;2.90;;;;;;;5.52;32.02;100795.22;8007135;28;20049;-63
2021/04/27 01:42:50;;;;;;;4.57;3.00;;;;;;;5.50;32.02;100799.66;8018314;28;20044;-64
2021/04/27 01:46:42;;;;;;;8.15;2.40;;;;;;;5.44;32.09;100795.56;8001261;28;20820;-63
2021/04/27 01:50:33;;;;;;;3.33;2.33;;;;;;;5.41;32.02;100789.66;8007917;28;20102;-63
2021/04/27 01:54:43;;;;;;;5.03;3.05;;;;;;;5.36;32.03;100789.00;8018062;28;20065;-63
2021/04/27 01:58:33;;;;;;;4.97;2.58;;;;;;;5.31;32.30;100783.19;7999437;28;20632;-63
2021/04/27 02:02:25;;;;;;;5.85;2.50;;;;;;;5.27;32.38;100784.25;8009570;28;20061;-63
2021/04/27 02:06:41;;;;;;;5.85;2.55;;;;;;;5.21;32.31;100782.75;8011870;28;20025;-63
2021/04/27 02:10:33;;;;;;;4.20;2.63;;;;;;;5.18;32.38;100788.09;8001761;28;20076;-63
2021/04/27 02:14:29;;;;;;;2.90;2.05;;;;;;;5.13;32.48;100790.03;7992100;28;20069;-63
2021/04/27 02:18:41;;;;;;;5.10;2.42;;;;;;;5.07;32.59;100788.53;8008532;28;20029;-63
2021/04/27 02:22:41;;;;;;;3.75;2.80;;;;;;;5.00;32.41;100784.53;8001885;28;20099;-64
2021/04/27 02:26:42;;;;;;;4.15;2.55;;;;;;;4.96;32.57;100790.78;7992335;28;20087;-64
2021/04/27 02:30:59;;;;;;;3.38;2.05;;;;;;;4.91;32.56;100789.28;8004982;28;20052;-64
2021/04/27 02:34:50;;;;;;;3.92;2.50;;;;;;;4.84;32.71;100782.66;8008703;28;20077;-64
2021/04/27 02:38:42;;;;;;;5.70;2.60;;;;;;;4.84;32.83;100782.66;7995211;28;20067;-63
2021/04/27 02:42:35;;;;;;;6.50;3.22;;;;;;;4.80;32.92;100783.72;8003323;28;20063;-64
2021/04/27 02:46:47;;;;;;;2.70;2.35;;;;;;;4.74;32.74;100774.41;8000335;28;20144;-63
2021/04/27 02:50:41;;;;;;;2.88;2.22;;;;;;;4.70;32.81;100778.03;8007403;28;20053;-63
2021/04/27 02:54:32;;;;;;;2.78;2.00;;;;;;;4.65;33.05;100770.44;8005894;28;20049;-63
2021/04/27 02:58:23;;;;;;;3.17;2.20;;;;;;;4.61;32.74;100768.03;8007726;28;20128;-63
2021/04/27 03:02:21;;;;;;;2.70;1.95;;;;;;;4.59;33.03;100775.06;8006348;28;20041;-63
2021/04/27 03:06:12;;;;;;;3.83;2.45;;;;;;;4.52;32.95;100766.69;8007438;28;20045;-63
2021/04/27 03:10:23;;;;;;;3.10;2.10;;;;;;;4.49;32.97;100776.34;8010512;28;20055;-63
2021/04/27 03:14:14;;;;;;;3.17;2.13;;;;;;;4.46;33.31;100774.75;8009533;28;20037;-63
2021/04/27 03:18:05;;;;;;;3.53;2.08;;;;;;;4.42;33.50;100773.19;7997043;28;20033;-64
2021/04/27 03:21:56;;;;;;;2.40;1.80;;;;;;;4.39;33.11;100772.47;7997105;28;20047;-63
2021/04/27 03:25:47;;;;;;;3.38;2.05;;;;;;;4.37;33.07;100775.13;8006584;28;20036;-63
2021/04/27 03:29:40;;;;;;;4.75;2.00;;;;;;;4.33;33.36;100770.97;7992762;28;20041;-63
2021/04/27 03:33:31;;;;;;;7.60;2.08;;;;;;;4.29;33.35;100766.78;8000938;28;20041;-64
2021/04/27 03:37:23;;;;;;;3.95;1.92;;;;;;;4.25;33.49;100766.09;8004206;28;20424;-63
2021/04/27 03:41:14;;;;;;;4.90;1.98;;;;;;;4.18;33.41;100758.59;8010828;28;20059;-63
2021/04/27 03:45:06;;;;;;;3.88;2.15;;;;;;;4.18;33.59;100763.81;8001272;28;20040;-64
2021/04/27 03:48:57;;;;;;;2.63;1.80;;;;;;;4.15;33.31;100769.13;8015355;28;20045;-64
2021/04/27 03:52:48;;;;;;;4.70;1.90;;;;;;;4.10;33.63;100763.28;8007060;28;20045;-63
2021/04/27 03:56:39;;;;;;;2.30;1.90;;;;;;;4.07;33.72;100759.03;8006208;28;20032;-64
2021/04/27 04:00:33;;;;;;;3.03;1.95;;;;;;;4.01;33.60;100753.25;8003797;28;20119;-66
2021/04/27 04:04:30;;;;;;;2.72;2.05;;;;;;;4.00;33.64;100767.13;8004004;28;20044;-66
2021/04/27 04:08:37;;;;;;;3.85;1.85;;;;;;;3.96;33.48;100760.38;7987970;28;20141;-63
2021/04/27 04:12:27;;;;;;;3.10;2.13;;;;;;;3.92;33.82;100759.66;8004479;28;20044;-63
2021/04/27 04:16:19;;;;;;;3.78;2.17;;;;;;;3.91;34.05;100764.91;8007199;28;20044;-63
2021/04/27 04:20:17;;;;;;;4.47;2.13;;;;;;;3.87;33.78;100764.19;8007248;28;20840;-63
2021/04/27 04:24:13;;;;;;;4.03;2.13;;;;;;;3.85;34.24;100759.97;7988381;28;20068;-63
2021/04/27 04:28:05;;;;;;;3.45;2.05;;;;;;;3.82;33.89;100762.69;8012308;28;20037;-63
2021/04/27 04:31:56;;;;;;;5.07;2.08;;;;;;;3.79;33.97;100761.06;8019459;28;20045;-63
2021/04/27 04:36:22;;;;;;;4.22;1.83;;;;;;;3.74;33.85;100766.41;7947601;28;20123;-63
2021/04/27 04:40:39;;;;;;;3.35;2.10;;;;;;;3.73;34.29;100782.09;8015960;28;20040;-63
2021/04/27 04:45:09;;;;;;;4.18;1.55;;;;;;;3.69;34.14;100783.97;8013304;28;20052;-63
2021/04/27 04:49:18;;;;;;;3.85;2.08;;;;;;;3.61;34.33;100765.22;8012652;28;20037;-66
2021/04/27 04:53:27;;;;;;;5.07;2.53;;;;;;;3.70;34.57;100782.19;8002937;28;20368;-63
2021/04/27 04:57:19;;;;;;;2.45;1.67;;;;;;;3.74;33.99;100789.81;7990638;28;20457;-64
2021/04/27 05:01:10;;;;;;;2.80;1.60;;;;;;;3.79;34.47;100793.09;8013357;28;20063;-63
2021/04/27 05:05:00;;;;;;;3.30;1.92;;;;;;;3.88;34.31;100778.03;8011541;28;20036;-63
2021/04/27 05:09:12;;;;;;;3.40;1.90;;;;;;;3.98;34.49;100793.22;8011171;28;20043;-63
2021/04/27 05:13:26;;;;;;;2.60;1.80;;;;;;;4.10;34.43;100787.53;8016742;28;20562;-63
2021/04/27 05:17:18;;;;;;;4.57;2.10;;;;;;;4.24;34.69;100781.72;8018193;28;20033;-63
2021/04/27 05:21:08;;;;;;;5.47;2.80;;;;;;;4.48;34.63;100783.31;8010866;28;20044;-63
2021/04/27 05:24:59;;;;;;;7.55;2.75;;;;;;;4.84;34.73;100782.66;8016314;28;20040;-63
2021/04/27 05:28:52;;;;;;;4.32;2.60;;;;;;;5.37;34.86;100780.28;8004411;28;20037;-63
2021/04/27 05:32:42;;;;;;;4.40;2.38;;;;;;;5.87;34.82;100780.53;8009902;28;20412;-64
2021/04/27 05:36:33;;;;;;;5.82;2.35;;;;;;;6.07;34.91;100772.59;8010444;28;20086;-63
2021/04/27 05:40:25;;;;;;;5.85;2.22;;;;;;;6.18;34.52;100780.72;8013376;28;20040;-64
2021/04/27 05:44:15;;;;;;;3.58;2.03;;;;;;;6.21;34.73;100771.91;8016705;28;20094;-64
2021/04/27 05:48:06;;;;;;;3.60;2.17;;;;;;;6.28;34.46;100773.28;8009711;28;20044;-63
2021/04/27 05:51:57;;;;;;;9.25;2.92;;;;;;;6.40;34.70;100770.06;8009796;28;20040;-63
2021/04/27 05:55:47;;;;;;;2.35;1.70;;;;;;;6.45;34.40;100775.91;7976647;28;20041;-64
2021/04/27 05:59:38;;;;;;;2.63;1.75;;;;;;;6.49;34.51;100772.22;8010261;28;20140;-64
2021/04/27 06:03:28;;;;;;;2.17;1.58;;;;;;;6.61;34.50;100775.97;8024484;28;20051;-63
2021/04/27 06:07:19;;;;;;;4.85;1.77;;;;;;;6.87;34.46;100770.28;8017033;28;20040;-64
2021/04/27 06:11:09;;;;;;;3.25;1.52;;;;;;;7.49;34.49;100772.16;8009770;28;20136;-64
2021/04/27 06:15:00;;;;;;;4.15;2.05;;;;;;;8.49;34.42;100770.84;8009492;28;20473;-64
2021/04/27 06:18:51;;;;;;;2.38;1.58;;;;;;;9.59;34.29;100765.78;8012747;28;20040;-63
2021/04/27 06:22:42;;;;;;;1.95;1.50;;;;;;;10.64;33.75;100760.56;8009244;28;20555;-64
2021/04/27 06:26:32;;;;;;;3.03;1.80;;;;;;;11.69;33.39;100755.78;8008907;28;20151;-64
2021/04/27 06:30:23;;;;;;;2.97;1.60;;;;;;;12.73;32.86;100756.78;8000559;28;20497;-64
2021/04/27 06:34:13;;;;;;;1.65;1.40;;;;;;;13.65;32.41;100741.53;8003566;28;20028;-64
2021/04/27 06:38:04;;;;;;;2.90;1.45;;;;;;;14.61;31.69;100746.78;8018510;28;20029;-64
2021/04/27 06:41:54;;;;;;;9.82;1.85;;;;;;;15.52;31.14;100749.41;7991392;28;20036;-64
2021/04/27 06:45:45;;;;;;;10.40;2.03;;;;;;;16.33;30.28;100743.75;8019383;28;21033;-64
2021/04/27 06:49:36;;;;;;;2.05;1.60;;;;;;;17.09;29.72;100739.25;7993412;28;20036;-64
2021/04/27 06:53:26;;;;;;;2.47;1.60;;;;;;;17.77;29.19;100739.75;7992174;28;20971;-64
2021/04/27 06:57:17;;;;;;;2.90;1.35;;;;;;;18.36;28.55;100737.25;8020555;28;20031;-65
2021/04/27 07:01:08;;;;;;;2.58;1.60;;;;;;;19.09;28.04;100736.91;8006126;28;20029;-64
2021/04/27 07:04:59;;;;;;;2.80;1.80;;;;;;;19.71;27.25;100725.81;8016456;28;20060;-64
2021/04/27 07:08:49;;;;;;;1.92;1.30;;;;;;;20.36;26.77;100731.19;7996568;28;20029;-64
2021/04/27 07:12:40;;;;;;;1.88;1.40;;;;;;;21.00;26.66;100721.41;8016335;28;20546;-64
2021/04/27 07:16:30;;;;;;;1.40;1.20;;;;;;;21.50;25.86;100723.72;8017146;28;20042;-64
2021/04/27 07:20:21;;;;;;;1.80;1.55;;;;;;;22.01;24.94;100712.34;7994334;28;20045;-64
2021/04/27 07:24:12;;;;;;;4.07;1.40;;;;;;;22.42;24.45;100715.47;8017118;28;20127;-64
2021/04/27 07:28:04;;;;;;;2.08;1.50;;;;;;;22.94;23.89;100712.78;8017250;28;20394;-64
2021/04/27 07:31:54;;;;;;;1.48;1.25;;;;;;;23.53;23.64;100707.34;8017570;28;20084;-65
2021/04/27 07:35:45;;;;;;;7.47;1.50;;;;;;;23.73;23.00;100708.41;8012734;28;20098;-65
2021/04/27 07:39:36;;;;;;;2.40;1.40;;;;;;;23.93;22.53;100697.03;8017222;28;20096;-65
2021/04/27 07:43:26;;;;;;;1.48;1.10;;;;;;;24.20;22.38;100702.44;8017880;28;20044;-65
2021/04/27 07:47:17;;;;;;;1.58;1.30;;;;;;;24.55;21.84;100697.13;8016460;28;20033;-65
2021/04/27 07:51:07;;;;;;;1.90;1.48;;;;;;;24.95;21.47;100690.16;8015192;28;20044;-65
2021/04/27 07:54:58;;;;;;;2.35;1.30;;;;;;;25.34;21.09;100684.13;8017185;28;20160;-65
2021/04/27 07:58:49;;;;;;;1.67;1.20;;;;;;;25.83;20.83;100681.13;8018905;28;20040;-65
2021/04/27 08:02:40;;;;;;;3.03;1.45;;;;;;;26.27;20.10;100681.34;8014303;28;20044;-65
2021/04/27 08:06:32;;;;;;;4.45;1.50;;;;;;;26.71;19.81;100687.94;8017378;28;20592;-65
2021/04/27 08:10:23;;;;;;;2.33;1.42;;;;;;;26.85;18.98;100682.28;8013954;28;20048;-65
2021/04/27 08:14:14;;;;;;;1.23;1.00;;;;;;;27.18;19.24;100681.38;8015033;28;20091;-65
2021/04/27 08:18:05;;;;;;;2.10;1.20;;;;;;;27.43;18.45;100679.56;8010230;28;20056;-65
2021/04/27 08:21:55;;;;;;;1.20;1.10;;;;;;;27.63;18.03;100671.41;8013502;28;20043;-65
2021/04/27 08:25:46;;;;;;;1.80;1.42;;;;;;;27.94;18.05;100668.66;8010637;28;20056;-65
2021/04/27 08:29:36;;;;;;;2.58;1.63;;;;;;;28.28;17.60;100676.28;8012509;28;20375;-65
2021/04/27 08:33:27;;;;;;;3.10;1.70;;;;;;;28.50;17.47;100678.56;8010213;28;20048;-65
2021/04/27 08:37:18;;;;;;;3.80;1.50;;;;;;;28.60;17.26;100673.47;8011315;28;20434;-65
2021/04/27 08:41:09;;;;;;;4.72;1.27;;;;;;;28.78;16.79;100676.22;8014007;28;20146;-64
2021/04/27 08:45:00;;;;;;;1.95;1.27;;;;;;;28.97;16.78;100671.59;8012730;28;20140;-64
2021/04/27 08:48:52;;;;;;;1.67;1.23;;;;;;;29.07;16.64;100669.19;8016411;28;20105;-64
2021/04/27 08:52:43;;;;;;;1.20;1.10;;;;;;;29.08;16.43;100674.38;7986912;28;20033;-64
2021/04/27 08:56:34;;;;;;;1.48;1.38;;;;;;;28.96;15.90;100673.47;8009771;28;20063;-64
2021/04/27 09:00:25;;;;;;;3.30;1.50;;;;;;;28.64;16.04;100669.25;8014304;28;20040;-64
2021/04/27 09:04:53;;;;;;;3.55;1.58;;;;;;;28.20;16.60;100654.97;8016972;28;20139;-65
2021/04/27 09:08:43;;;;;;;1.75;1.30;;;;;;;27.60;16.57;100659.13;8016830;28;20060;-64
2021/04/27 09:12:34;;;;;;;1.83;1.40;;;;;;;26.95;16.76;100652.22;8014140;28;20036;-64
2021/04/27 09:16:27;;;;;;;3.53;1.38;;;;;;;26.37;16.67;100657.53;8013917;28;20036;-64
2021/04/27 09:20:18;;;;;;;3.47;1.40;;;;;;;25.78;16.73;100668.28;8018159;28;20047;-64
2021/04/27 09:24:14;;;;;;;1.55;1.40;;;;;;;25.04;17.19;100665.59;7995847;28;20032;-64
2021/04/27 09:28:05;;;;;;;1.67;1.27;;;;;;;24.21;17.18;100663.84;8017514;28;20690;-64
2021/04/27 09:31:55;;;;;;;2.83;1.60;;;;;;;23.33;17.19;100652.66;8018555;28;20036;-64
2021/04/27 09:35:46;;;;;;;3.00;1.60;;;;;;;22.54;17.41;100644.44;8013866;28;20048;-64
2021/04/27 09:39:47;;;;;;;2.20;1.38;;;;;;;21.84;17.61;100646.63;8019002;28;20065;-64
2021/04/27 09:43:45;;;;;;;3.42;1.60;;;;;;;21.16;17.61;100643.88;8017249;28;20052;-64
2021/04/27 09:47:38;;;;;;;2.88;1.60;;;;;;;20.48;17.94;100644.47;8021078;28;20036;-64
2021/04/27 09:51:31;;;;;;;5.70;1.58;;;;;;;19.94;18.22;100646.03;8019254;28;20747;-64
2021/04/27 09:55:22;;;;;;;2.67;1.50;;;;;;;19.43;18.08;100633.00;8017238;28;20040;-64
2021/04/27 09:59:15;;;;;;;2.90;1.55;;;;;;;19.08;18.53;100626.91;8019628;28;20036;-64
2021/04/27 10:03:11;;;;;;;2.92;1.70;;;;;;;18.77;18.60;100631.13;8015242;28;20032;-64
2021/04/27 10:07:02;;;;;;;3.08;1.30;;;;;;;18.52;18.53;100608.91;8019895;28;20545;-64
2021/04/27 10:10:54;;;;;;;3.00;1.63;;;;;;;18.23;18.55;100616.38;7996519;28;20118;-64
2021/04/27 10:14:45;;;;;;;4.78;1.60;;;;;;;17.99;18.80;100619.66;8018284;28;20036;-64
2021/04/27 10:18:35;;;;;;;2.33;1.38;;;;;;;17.84;18.90;100615.91;8018065;28;20406;-64
2021/04/27 10:22:27;;;;;;;2.05;1.30;;;;;;;17.78;18.83;100612.03;8015092;28;20044;-64
2021/04/27 10:26:26;;;;;;;3.08;1.55;;;;;;;17.71;18.83;100611.00;8018634;28;20050;-64
2021/04/27 10:30:16;;;;;;;3.10;1.60;;;;;;;17.61;18.76;100599.56;8016536;28;20109;-64
2021/04/27 10:34:11;;;;;;;1.88;1.50;;;;;;;17.52;18.81;100596.03;8017448;28;20041;-64
2021/04/27 10:38:06;;;;;;;2.63;1.80;;;;;;;17.48;18.87;100589.38;8016096;28;20025;-64
2021/04/27 10:41:57;;;;;;;3.72;1.90;;;;;;;17.46;18.90;100583.38;8013275;28;20032;-62
2021/04/27 10:46:03;;;;;;;1.85;1.60;;;;;;;17.44;18.75;100580.03;8017140;28;20082;-63
2021/04/27 10:49:56;;;;;;;1.42;1.30;;;;;;;17.39;18.91;100578.81;8017571;28;20033;-63
2021/04/27 10:54:05;;;;;;;2.75;1.50;;;;;;;17.38;19.13;100569.19;8015096;28;20048;-63
2021/04/27 10:58:02;;;;;;;2.58;1.65;;;;;;;17.36;19.04;100563.22;8018813;28;20178;-63
2021/04/27 11:02:16;;;;;;;3.55;1.73;;;;;;;17.26;19.12;100568.59;8016677;28;20089;-63
2021/04/27 11:06:09;;;;;;;6.28;1.63;;;;;;;17.23;19.13;100560.09;8017191;28;20902;-63
2021/04/27 11:09:59;;;;;;;1.83;1.50;;;;;;;17.31;19.17;100560.16;8011520;28;20053;-63
2021/04/27 11:13:52;;;;;;;3.35;1.95;;;;;;;17.30;19.04;100542.56;7995264;28;20036;-63
2021/04/27 11:18:01;;;;;;;2.55;1.70;;;;;;;17.27;19.21;100543.72;8019051;28;20039;-63
2021/04/27 11:21:55;;;;;;;1.55;1.30;;;;;;;17.26;19.10;100539.38;8018265;28;20036;-63
2021/04/27 11:25:45;;;;;;;2.17;1.60;;;;;;;17.19;19.12;100543.63;8013328;28;20036;-62
2021/04/27 11:29:53;;;;;;;2.95;1.55;;;;;;;17.11;19.20;100525.00;7984758;28;20071;-63
2021/04/27 11:33:53;;;;;;;6.22;1.40;;;;;;;17.10;19.27;100528.63;8014857;28;20462;-63
2021/04/27 11:37:58;;;;;;;3.63;1.63;;;;;;;17.09;19.02;100524.28;8016952;28;20066;-63
2021/04/27 11:41:55;;;;;;;1.98;1.42;;;;;;;17.01;19.49;100519.75;8015635;28;20056;-63
2021/04/27 11:45:51;;;;;;;2.95;1.50;;;;;;;16.95;19.22;100509.72;8017610;28;20120;-63
2021/04/27 11:49:54;;;;;;;3.08;1.70;;;;;;;16.91;19.23;100510.97;8018045;28;20040;-62
2021/04/27 11:54:00;;;;;;;3.20;1.77;;;;;;;16.85;19.23;100511.59;8016258;28;20028;-63
2021/04/27 11:57:59;;;;;;;4.65;1.73;;;;;;;16.80;19.43;100499.75;8016529;28;20028;-63
2021/04/27 12:01:59;;;;;;;2.05;1.45;;;;;;;16.72;19.72;100504.97;8012863;28;20132;-63
2021/04/27 12:06:16;;;;;;;4.43;1.63;;;;;;;16.74;19.54;100497.72;8015119;28;20036;-63
2021/04/27 12:10:07;;;;;;;2.30;1.73;;;;;;;16.73;19.63;100499.53;8016919;28;20489;-63
2021/04/27 12:14:12;;;;;;;2.33;1.67;;;;;;;16.72;19.54;100494.38;7992110;28;20045;-63
2021/04/27 12:18:08;;;;;;;3.20;1.58;;;;;;;16.64;19.50;100493.31;8015648;28;20037;-63
2021/04/27 12:22:05;;;;;;;3.13;1.77;;;;;;;16.58;19.65;100496.53;8014372;28;20449;-62
2021/04/27 12:25:56;;;;;;;2.10;1.70;;;;;;;16.53;19.69;100485.53;8014145;28;20087;-63
2021/04/27 12:30:08;;;;;;;2.75;1.40;;;;;;;16.54;19.90;100481.06;8013472;28;20038;-63
2021/04/27 12:34:01;;;;;;;2.13;1.55;;;;;;;16.46;19.70;100467.72;8014036;28;20577;-63
2021/04/27 12:38:04;;;;;;;5.82;1.63;;;;;;;16.41;19.66;100464.72;8014340;28;20036;-63
2021/04/27 12:41:58;;;;;;;1.80;1.50;;;;;;;16.38;19.72;100449.94;8020053;28;20029;-63
2021/04/27 12:46:00;;;;;;;2.72;1.90;;;;;;;16.35;20.01;100447.56;8017821;28;20032;-63
2021/04/27 12:50:10;;;;;;;2.33;1.73;;;;;;;16.31;19.95;100448.03;8020042;28;20041;-63
2021/04/27 12:54:01;;;;;;;2.55;1.90;;;;;;;16.26;19.96;100434.38;8020286;28;20517;-63
2021/04/27 12:58:05;;;;;;;1.90;1.60;;;;;;;16.25;20.04;100433.53;8017575;28;20043;-63
2021/04/27 13:02:00;;;;;;;2.50;1.48;;;;;;;16.23;20.28;100427.56;8022025;28;20713;-63
2021/04/27 13:05:52;;;;;;;3.47;2.00;;;;;;;16.22;20.10;100428.53;8016792;28;20041;-63
2021/04/27 13:09:42;;;;;;;2.53;1.80;;;;;;;16.15;19.98;100424.81;8017162;28;20076;-63
2021/04/27 13:13:33;;;;;;;6.80;1.85;;;;;;;16.10;19.98;100419.94;8019563;28;20037;-63
2021/04/27 13:17:32;;;;;;;2.70;1.80;;;;;;;16.07;19.95;100414.94;8014226;28;20045;-63
2021/04/27 13:21:22;;;;;;;2.03;1.60;;;;;;;16.04;19.99;100412.56;8016783;28;20055;-63
2021/04/27 13:25:22;;;;;;;2.13;1.33;;;;;;;16.07;20.21;100406.16;8019236;28;20103;-63
2021/04/27 13:29:22;;;;;;;2.55;1.70;;;;;;;16.03;19.92;100392.38;8013805;28;20040;-63
2021/04/27 13:33:18;;;;;;;1.75;1.60;;;;;;;16.02;19.90;100387.22;8007297;28;20044;-63
2021/04/27 13:37:09;;;;;;;2.42;2.00;;;;;;;16.03;19.87;100391.53;8014978;28;20040;-63
2021/04/27 13:41:03;;;;;;;1.60;1.45;;;;;;;16.00;19.93;100387.34;8019301;28;20447;-63
2021/04/27 13:44:53;;;;;;;2.63;1.60;;;;;;;15.94;19.92;100380.00;8014860;28;20090;-63
2021/04/27 13:48:47;;;;;;;3.92;1.95;;;;;;;15.92;19.97;100368.69;8013668;28;20059;-63
2021/04/27 13:52:38;;;;;;;2.97;1.90;;;;;;;15.87;20.09;100363.00;8021265;28;20040;-63
2021/04/27 13:56:29;;;;;;;3.47;2.28;;;;;;;15.89;20.38;100362.88;8013383;28;20033;-63
2021/04/27 14:00:21;;;;;;;1.80;1.60;;;;;;;15.86;20.05;100353.41;8015270;28;20043;-63
2021/04/27 14:04:12;;;;;;;7.05;2.40;;;;;;;15.86;20.08;100345.47;8015591;28;20041;-63
2021/04/27 14:08:04;;;;;;;2.28;1.85;;;;;;;15.87;20.15;100341.00;8010764;28;20079;-63
2021/04/27 14:11:54;;;;;;;2.65;2.08;;;;;;;15.87;20.15;100338.38;8003305;28;21179;-63
2021/04/27 14:15:48;;;;;;;1.98;1.80;;;;;;;15.87;20.24;100333.06;8017433;28;20814;-63
2021/04/27 14:19:39;;;;;;;3.13;2.05;;;;;;;15.86;20.36;100326.09;8021733;28;20489;-63
2021/04/27 14:23:29;;;;;;;4.18;1.63;;;;;;;15.89;20.27;100326.63;8013482;28;20041;-63
2021/04/27 14:27:20;;;;;;;2.58;1.92;;;;;;;15.88;20.03;100311.72;8017623;28;20046;-63
2021/04/27 14:31:10;;;;;;;1.92;1.30;;;;;;;15.86;19.98;100312.84;8012221;28;20072;-63
2021/04/27 14:35:01;;;;;;;2.30;1.88;;;;;;;15.86;20.05;100307.56;8018424;28;20036;-63
2021/04/27 14:38:52;;;;;;;2.80;1.70;;;;;;;15.84;20.19;100298.91;7999806;28;20046;-63
2021/04/27 14:42:43;;;;;;;3.97;1.80;;;;;;;15.81;20.18;100299.22;8020403;28;20062;-63
2021/04/27 14:46:34;;;;;;;4.55;2.08;;;;;;;15.79;20.25;100307.31;8019979;28;20037;-63
2021/04/27 14:50:26;;;;;;;6.57;2.30;;;;;;;15.76;20.02;100296.19;8018863;28;20036;-63
2021/04/27 14:54:17;;;;;;;3.50;2.00;;;;;;;15.73;19.89;100303.44;8020045;28;20460;-63
2021/04/27 14:58:08;;;;;;;4.65;2.22;;;;;;;15.69;19.90;100294.13;8019811;28;20086;-63
2021/04/27 15:01:58;;;;;;;2.40;1.60;;;;;;;15.66;20.07;100297.06;8009431;28;20044;-63
2021/04/27 15:05:49;;;;;;;2.20;1.90;;;;;;;15.67;20.05;100290.78;8017689;28;20054;-63
2021/04/27 15:09:39;;;;;;;5.95;2.28;;;;;;;15.66;20.12;100296.25;8010991;28;20044;-64
2021/04/27 15:13:30;;;;;;;4.00;2.80;;;;;;;15.66;20.01;100290.97;8018068;28;20043;-63
2021/04/27 15:17:21;;;;;;;2.58;1.90;;;;;;;15.65;19.87;100289.28;8019079;28;20889;-63
2021/04/27 15:21:12;;;;;;;3.42;2.10;;;;;;;15.65;19.91;100287.47;8013074;28;20032;-63
2021/04/27 15:25:08;;;;;;;2.63;1.70;;;;;;;15.65;19.98;100290.13;8019500;28;20032;-63
2021/04/27 15:29:06;;;;;;;4.32;2.08;;;;;;;15.67;19.91;100288.13;8018262;28;20047;-63
2021/04/27 15:32:58;;;;;;;1.98;1.75;;;;;;;15.66;19.94;100278.53;8010535;28;20119;-63
2021/04/27 15:36:51;;;;;;;4.30;2.00;;;;;;;15.70;19.85;100284.38;8017248;28;20028;-63
2021/04/27 15:40:42;;;;;;;3.47;1.88;;;;;;;15.68;19.90;100281.88;8017872;28;20046;-63
2021/04/27 15:44:33;;;;;;;2.38;1.98;;;;;;;15.67;20.11;100284.66;8011588;28;20044;-63
2021/04/27 15:48:23;;;;;;;2.67;1.77;;;;;;;15.64;19.98;100277.84;8011408;28;20057;-63
2021/04/27 15:52:14;;;;;;;4.93;1.85;;;;;;;15.65;19.92;100276.88;8015023;28;20618;-63
2021/04/27 15:56:05;;;;;;;4.88;2.20;;;;;;;15.62;19.89;100279.81;7992139;28;20054;-63
2021/04/27 15:59:55;;;;;;;2.50;1.80;;;;;;;15.58;20.07;100277.63;8014372;28;20473;-63
2021/04/27 16:03:47;;;;;;;2.53;2.00;;;;;;;15.55;20.46;100268.16;8009365;28;20797;-63
2021/04/27 16:07:37;;;;;;;1.98;1.65;;;;;;;15.54;20.17;100269.13;8016474;28;20051;-63
2021/04/27 16:11:28;;;;;;;5.90;1.75;;;;;;;15.52;20.17;100264.97;8010997;28;20041;-63
2021/04/27 16:15:20;;;;;;;2.72;2.10;;;;;;;15.49;20.04;100250.22;8013990;28;20583;-63
2021/04/27 16:19:10;;;;;;;3.38;1.73;;;;;;;15.47;20.14;100244.22;7993650;28;20036;-63
2021/04/27 16:23:01;;;;;;;5.65;1.98;;;;;;;15.44;20.32;100243.69;8007739;28;20565;-63
2021/04/27 16:26:52;;;;;;;7.53;2.28;;;;;;;15.38;20.09;100246.91;8017136;28;20037;-62
2021/04/27 16:30:43;;;;;;;1.80;1.50;;;;;;;15.36;20.33;100235.66;8017666;28;20037;-63
2021/04/27 16:34:34;;;;;;;2.25;1.83;;;;;;;15.34;20.23;100242.91;8013689;28;21020;-63
2021/04/27 16:38:24;;;;;;;8.45;1.80;;;;;;;15.30;20.35;100239.72;8016484;28;20029;-63
2021/04/27 16:42:15;;;;;;;3.08;1.90;;;;;;;15.24;20.39;100235.84;8011250;28;20740;-63
2021/04/27 16:46:06;;;;;;;2.55;1.50;;;;;;;15.21;20.22;100230.81;8014673;28;20032;-68
2021/04/27 16:49:56;;;;;;;2.67;1.85;;;;;;;15.19;20.09;100222.22;8016372;28;20090;-70
2021/04/27 16:53:47;;;;;;;3.72;1.58;;;;;;;15.17;20.07;100233.91;7986231;28;20477;-70
2021/04/27 16:57:38;;;;;;;3.10;1.77;;;;;;;15.14;20.46;100226.25;8005287;28;20575;-71
2021/04/27 17:01:30;;;;;;;2.35;1.70;;;;;;;15.09;20.20;100216.09;8003370;28;20135;-71
2021/04/27 17:05:21;;;;;;;3.25;1.85;;;;;;;15.07;20.37;100217.25;8000030;28;20447;-70
2021/04/27 17:09:12;;;;;;;3.88;1.70;;;;;;;15.02;20.52;100211.56;8008506;28;20632;-69
2021/04/27 17:13:04;;;;;;;1.90;1.70;;;;;;;15.00;20.43;100216.16;7988183;28;20043;-72
2021/04/27 17:16:55;;;;;;;3.10;1.85;;;;;;;14.94;20.61;100214.94;8006791;28;20052;-69
2021/04/27 17:20:45;;;;;;;2.25;1.60;;;;;;;14.89;20.43;100214.53;7992388;28;20473;-69
2021/04/27 17:24:36;;;;;;;6.50;1.70;;;;;;;14.87;20.53;100213.84;8017834;28;20806;-70
2021/04/27 17:28:27;;;;;;;5.32;1.98;;;;;;;14.79;20.81;100209.25;8018832;28;20684;-69
2021/04/27 17:32:20;;;;;;;2.72;1.90;;;;;;;14.79;20.61;100211.09;8016360;28;20040;-68
2021/04/27 17:36:11;;;;;;;2.60;1.77;;;;;;;14.74;20.80;100222.09;8016129;28;20037;-68
2021/04/27 17:40:04;;;;;;;2.50;1.75;;;;;;;14.71;20.65;100211.00;8018767;28;20024;-68
2021/04/27 17:43:55;;;;;;;2.30;1.80;;;;;;;14.66;20.64;100206.13;8019080;28;20403;-68
2021/04/27 17:47:46;;;;;;;2.20;1.83;;;;;;;14.60;20.90;100211.97;8016443;28;20045;-68
2021/04/27 17:51:36;;;;;;;2.55;1.70;;;;;;;14.56;20.89;100205.31;8016874;28;20040;-61
2021/04/27 17:55:27;;;;;;;2.13;1.50;;;;;;;14.51;21.08;100212.81;8020747;28;20056;-61
2021/04/27 17:59:18;;;;;;;4.70;1.83;;;;;;;14.47;21.12;100206.16;8020918;28;20037;-61
2021/04/27 18:03:09;;;;;;;1.85;1.50;;;;;;;14.42;21.28;100207.53;8012683;28;20040;-61
2021/04/27 18:06:59;;;;;;;3.13;1.70;;;;;;;14.36;21.30;100203.66;7991927;28;20032;-68
2021/04/27 18:10:50;;;;;;;11.50;2.45;;;;;;;14.28;21.17;100201.72;8012662;28;20035;-68
2021/04/27 18:14:40;;;;;;;2.70;1.67;;;;;;;14.24;21.37;100202.13;7989582;28;20047;-68